This is the latest recevied weather packets stored in our database for station/object IW1QQG-13. If no packets are shown the sender has not sent any weather packets the latest 1 day(s).
| Time | Temp. | Humidity | Pressure | Rain* | Wind** | Luminosity | Snow |
|---|---|---|---|---|---|---|---|
| 1778096765 | 14.44° C | 86% | 1010.8 hPa | 0 mm | - | 0 W/m² | - |
| 1778093765 | 14.44° C | 84% | 1010.2 hPa | 0 mm | - | 0 W/m² | - |
| 1778079364 | 18.89° C | 64% | 1009.8 hPa | 0 mm | - | 0 W/m² | - |
| 1778078164 | 20° C | 63% | 1009.8 hPa | 0 mm | - | - | - |
| 1778076964 | 19.44° C | 64% | 1009.8 hPa | 0 mm | - | - | - |
| 1778073364 | 19.44° C | 71% | 1010.2 hPa | 0 mm | - | 263 W/m² | - |
| 1778068564 | 18.89° C | 72% | 1010.2 hPa | 0 mm | - | - | - |
| 1778066764 | 19.44° C | 67% | 1010.2 hPa | 0 mm | - | - | - |
| 1778065564 | 20° C | 65% | 1010.2 hPa | 0 mm | - | - | - |
| 1778064964 | 20° C | 64% | 1010.2 hPa | 0 mm | - | 307 W/m² | - |
| 1778064364 | 20.56° C | 65% | 1010.2 hPa | 0 mm | - | 317 W/m² | - |
| 1778063764 | 20.56° C | 65% | 1010.2 hPa | 0 mm | - | 226 W/m² | - |
| 1778063164 | 20.56° C | 68% | 1010.2 hPa | 0 mm | - | - | - |
| 1778062564 | 20.56° C | 65% | 1009.8 hPa | 0 mm | - | 259 W/m² | - |
| 1778061964 | 20.56° C | 63% | 1010.2 hPa | 0 mm | - | 214 W/m² | - |
| 1778061364 | 20.56° C | 63% | 1009.8 hPa | 0 mm | - | 234 W/m² | - |
| 1778060764 | 20.56° C | 63% | 1009.8 hPa | 0 mm | - | 231 W/m² | - |
| 1778060164 | 20.56° C | 62% | 1009.8 hPa | 0 mm | - | 225 W/m² | - |
| 1778059564 | 20.56° C | 63% | 1010.2 hPa | 0 mm | - | 136 W/m² | - |
| 1778058964 | 20.56° C | 63% | 1010.2 hPa | 0 mm | - | 150 W/m² | - |
| 1778058368 | 20.56° C | 62% | 1010.2 hPa | 0 mm | - | 143 W/m² | - |
| 1778057764 | 19.44° C | 66% | 1010.2 hPa | 0 mm | - | 119 W/m² | - |
| 1778055964 | 19.44° C | 68% | 1009.8 hPa | 0 mm | - | - | - |
| 1778054164 | 17.78° C | 71% | 1009.8 hPa | 0 mm | - | - | - |
| 1778052357 | 16.11° C | 81% | 1009.8 hPa | 0 mm | - | 196 W/m² | - |
* Rain latest hour (hover to see other rain measurements)
** Current wind speed in m/s (hover to see current wind gust speed)